createdAt,value
2023-02-04T00:00:27.756Z,9.60
2023-02-04T00:02:54.754Z,9.00
2023-02-04T00:05:22.245Z,9.10
2023-02-04T00:07:49.223Z,9.50
2023-02-04T00:10:16.349Z,9.10
2023-02-04T00:12:43.396Z,9.50
2023-02-04T00:15:11.068Z,9.00
2023-02-04T00:17:38.321Z,8.40
2023-02-04T00:20:06.196Z,8.10
2023-02-04T00:22:33.137Z,9.20
2023-02-04T00:25:00.094Z,8.80
2023-02-04T00:27:27.345Z,8.60
2023-02-04T00:29:54.921Z,8.60
2023-02-04T00:32:22.034Z,8.40
2023-02-04T00:34:49.325Z,8.60
2023-02-04T00:37:16.337Z,8.50
2023-02-04T00:39:43.336Z,8.70
2023-02-04T00:42:10.385Z,8.00
2023-02-04T00:44:37.733Z,8.60
2023-02-04T00:47:05.224Z,9.00
2023-02-04T00:49:34.806Z,7.20
2023-02-04T00:52:02.282Z,8.30
2023-02-04T00:54:29.637Z,8.40
2023-02-04T00:56:56.613Z,9.10
2023-02-04T00:59:23.905Z,7.60
2023-02-04T01:01:51.822Z,8.90
2023-02-04T01:04:18.982Z,8.30
2023-02-04T01:06:45.925Z,7.80
2023-02-04T01:09:12.881Z,6.80
2023-02-04T01:11:39.846Z,7.30
2023-02-04T01:14:06.784Z,8.30
2023-02-04T01:16:33.997Z,8.50
2023-02-04T01:19:00.994Z,8.30
2023-02-04T01:21:28.053Z,7.60
2023-02-04T01:23:54.918Z,8.30
2023-02-04T01:26:22.769Z,9.30
2023-02-04T01:29:04.144Z,7.80
2023-02-04T01:31:33.149Z,7.30
2023-02-04T01:34:01.558Z,7.60
2023-02-04T01:36:28.474Z,7.60
2023-02-04T01:38:56.354Z,8.20
2023-02-04T01:41:23.196Z,7.60
2023-02-04T01:43:50.246Z,7.50
2023-02-04T01:46:18.141Z,7.90
2023-02-04T01:48:46.807Z,7.80
2023-02-04T01:51:17.332Z,6.70
2023-02-04T01:53:44.288Z,6.20
2023-02-04T01:56:23.114Z,6.00
2023-02-04T01:58:50.680Z,6.70
2023-02-04T02:01:38.817Z,7.00
2023-02-04T02:04:06.171Z,6.10
2023-02-04T02:06:34.574Z,6.20
2023-02-04T02:09:02.828Z,6.70
2023-02-04T02:11:30.398Z,6.60
2023-02-04T02:14:00.412Z,7.30
2023-02-04T02:16:27.273Z,6.50
2023-02-04T02:18:54.828Z,6.30
2023-02-04T02:21:31.910Z,6.20
2023-02-04T02:24:01.209Z,6.30
2023-02-04T02:26:28.470Z,6.30
2023-02-04T02:28:55.664Z,6.00
2023-02-04T02:31:23.744Z,6.60
2023-02-04T02:33:50.871Z,7.20
2023-02-04T02:36:18.115Z,6.50
2023-02-04T02:38:45.063Z,5.70
2023-02-04T02:41:12.120Z,6.70
2023-02-04T02:43:40.004Z,6.70
2023-02-04T02:46:07.364Z,7.60
2023-02-04T02:48:34.293Z,6.70
2023-02-04T02:51:01.551Z,6.40
2023-02-04T02:53:28.806Z,6.80
2023-02-04T02:55:55.775Z,6.70
2023-02-04T02:58:35.006Z,6.40
2023-02-04T03:01:05.131Z,6.50
2023-02-04T03:03:53.140Z,6.80
2023-02-04T03:06:25.107Z,7.40
2023-02-04T03:08:56.204Z,8.20
2023-02-04T03:11:24.224Z,7.10
2023-02-04T03:13:52.095Z,6.10
2023-02-04T03:16:54.803Z,6.50
2023-02-04T03:19:24.568Z,5.70
2023-02-04T03:24:18.964Z,6.50
2023-02-04T03:26:45.829Z,6.40
2023-02-04T03:29:12.707Z,5.30
2023-02-04T03:31:39.796Z,6.00
2023-02-04T03:34:06.863Z,5.50
2023-02-04T03:36:34.738Z,5.00
2023-02-04T03:39:02.302Z,6.40
2023-02-04T03:41:30.103Z,5.50
2023-02-04T03:43:57.025Z,5.20
2023-02-04T03:46:24.716Z,5.30
2023-02-04T03:48:51.843Z,5.20
2023-02-04T03:51:18.646Z,6.50
2023-02-04T03:53:45.445Z,5.60
2023-02-04T03:56:12.390Z,5.50
2023-02-04T03:58:39.246Z,7.90
2023-02-04T04:01:06.087Z,8.20
2023-02-04T04:03:33.037Z,5.30
2023-02-04T04:06:00.125Z,5.80
2023-02-04T04:08:27.048Z,6.40
2023-02-04T04:10:53.998Z,12.50
2023-02-04T04:13:20.949Z,5.10
2023-02-04T04:15:47.938Z,5.10
2023-02-04T04:18:14.943Z,4.80
2023-02-04T04:20:41.791Z,5.60
2023-02-04T04:23:08.640Z,6.00
2023-02-04T04:25:35.795Z,5.70
2023-02-04T04:28:02.796Z,4.40
2023-02-04T04:30:30.079Z,5.50
2023-02-04T04:32:57.358Z,5.20
2023-02-04T04:35:24.206Z,5.20
2023-02-04T04:37:51.052Z,5.60
2023-02-04T04:40:18.316Z,5.60
2023-02-04T04:42:45.156Z,6.00
2023-02-04T04:45:14.542Z,5.40
2023-02-04T04:47:41.820Z,5.10
2023-02-04T04:50:09.287Z,5.60
2023-02-04T04:52:36.128Z,4.80
2023-02-04T04:55:03.281Z,6.20
2023-02-04T04:57:30.137Z,5.10
2023-02-04T04:59:57.188Z,6.00
2023-02-04T05:02:24.052Z,5.90
2023-02-04T05:04:50.933Z,5.20
2023-02-04T05:07:17.835Z,5.00
2023-02-04T05:09:44.795Z,5.60
2023-02-04T05:12:11.743Z,5.60
2023-02-04T05:14:38.584Z,6.50
2023-02-04T05:17:05.540Z,7.40
2023-02-04T05:19:32.388Z,5.60
2023-02-04T05:22:01.898Z,5.80
2023-02-04T05:24:28.949Z,6.10
2023-02-04T05:26:55.751Z,6.20
2023-02-04T05:29:22.650Z,6.40
2023-02-04T05:31:49.524Z,7.10
2023-02-04T05:34:16.441Z,6.00
2023-02-04T05:36:43.395Z,7.40
2023-02-04T05:39:10.242Z,6.80
2023-02-04T05:41:37.199Z,7.80
2023-02-04T05:44:06.187Z,7.70
2023-02-04T05:46:33.136Z,5.40
2023-02-04T05:48:59.983Z,5.20
2023-02-04T05:51:26.834Z,6.40
2023-02-04T05:53:53.681Z,6.60
2023-02-04T05:56:20.630Z,7.30
2023-02-04T05:58:47.481Z,8.10
2023-02-04T06:01:14.434Z,8.90
2023-02-04T06:03:41.335Z,10.20
2023-02-04T06:06:08.328Z,10.80
2023-02-04T06:08:35.278Z,9.80
2023-02-04T06:11:02.229Z,9.90
2023-02-04T06:13:29.079Z,9.40
2023-02-04T06:15:56.042Z,7.60
2023-02-04T06:18:22.979Z,7.30
2023-02-04T06:20:49.938Z,7.60
2023-02-04T06:23:16.877Z,8.20
2023-02-04T06:25:43.830Z,7.00
2023-02-04T06:28:10.757Z,7.30
2023-02-04T06:30:37.680Z,7.10
2023-02-04T06:33:04.717Z,6.60
2023-02-04T06:35:31.733Z,6.70
2023-02-04T06:37:58.586Z,7.50
2023-02-04T06:40:25.429Z,7.20
2023-02-04T06:42:52.277Z,7.50
2023-02-04T06:45:19.135Z,7.50
2023-02-04T06:47:46.084Z,7.00
2023-02-04T06:50:13.136Z,6.90
2023-02-04T06:52:40.080Z,7.50
2023-02-04T06:55:07.140Z,8.30
2023-02-04T06:57:34.090Z,8.00
2023-02-04T07:00:01.061Z,11.30
2023-02-04T07:02:28.025Z,8.00
2023-02-04T07:04:55.139Z,8.50
2023-02-04T07:07:22.002Z,8.80
2023-02-04T07:09:50.197Z,7.40
2023-02-04T07:12:17.122Z,7.80
2023-02-04T07:14:44.173Z,8.50
2023-02-04T07:17:11.126Z,8.70
2023-02-04T07:19:38.487Z,7.60
2023-02-04T07:22:05.334Z,7.20
2023-02-04T07:24:32.298Z,5.70
2023-02-04T07:27:00.316Z,6.30
2023-02-04T07:29:28.635Z,6.60
2023-02-04T07:31:55.845Z,6.40
2023-02-04T07:34:23.152Z,6.70
2023-02-04T07:36:50.356Z,7.90
2023-02-04T07:39:17.466Z,5.80
2023-02-04T07:41:44.420Z,5.70
2023-02-04T07:44:12.073Z,5.30
2023-02-04T07:46:39.094Z,5.40
2023-02-04T07:49:06.075Z,6.20
2023-02-04T07:51:33.350Z,5.70
2023-02-04T07:54:00.177Z,5.10
2023-02-04T07:56:27.128Z,5.50
2023-02-04T07:58:54.106Z,4.80
2023-02-04T08:01:22.414Z,5.10
2023-02-04T08:03:49.406Z,5.00
2023-02-04T08:06:16.357Z,4.60
2023-02-04T08:08:43.206Z,4.70
2023-02-04T08:11:10.159Z,4.50
2023-02-04T08:13:37.113Z,4.40
2023-02-04T08:16:04.493Z,4.20
2023-02-04T08:18:31.627Z,5.10
2023-02-04T08:20:59.596Z,4.50
2023-02-04T08:23:26.546Z,3.80
2023-02-04T08:25:56.566Z,4.00
2023-02-04T08:30:50.486Z,4.10
2023-02-04T08:33:17.828Z,3.60
2023-02-04T08:35:45.189Z,3.70
2023-02-04T08:38:12.136Z,3.50
2023-02-04T08:40:39.078Z,4.20
2023-02-04T08:43:05.932Z,3.60
2023-02-04T08:45:35.139Z,3.90
2023-02-04T08:48:02.313Z,4.80
2023-02-04T08:50:31.280Z,8.80
2023-02-04T08:52:58.460Z,4.90
2023-02-04T08:55:25.525Z,5.30
2023-02-04T08:57:52.480Z,4.10
2023-02-04T09:00:19.633Z,5.60
2023-02-04T09:02:46.810Z,4.10
2023-02-04T09:05:13.841Z,5.00
2023-02-04T09:07:41.018Z,3.40
2023-02-04T09:10:08.453Z,3.10
2023-02-04T09:12:35.608Z,2.80
2023-02-04T09:15:02.675Z,3.20
2023-02-04T09:17:29.513Z,3.40
2023-02-04T09:19:56.570Z,3.40
2023-02-04T09:22:23.541Z,2.80
2023-02-04T09:24:50.475Z,2.60
2023-02-04T09:27:17.334Z,6.30
2023-02-04T09:29:44.266Z,3.90
2023-02-04T09:32:11.430Z,3.10
2023-02-04T09:34:38.645Z,3.00
2023-02-04T09:37:05.530Z,3.90
2023-02-04T09:39:32.483Z,5.70
2023-02-04T09:41:59.745Z,3.30
2023-02-04T09:44:29.049Z,4.40
2023-02-04T09:47:01.412Z,3.60
2023-02-04T09:49:28.687Z,2.40
2023-02-04T09:51:56.446Z,2.40
2023-02-04T09:54:24.326Z,2.40
2023-02-04T09:56:52.976Z,3.00
2023-02-04T09:59:24.151Z,3.50
2023-02-04T10:02:22.926Z,3.00
2023-02-04T10:04:54.171Z,2.00
2023-02-04T10:07:25.418Z,2.80
2023-02-04T10:09:54.524Z,2.20
2023-02-04T10:12:22.292Z,2.40
2023-02-04T10:14:49.938Z,2.40
2023-02-04T10:17:22.323Z,2.70
2023-02-04T10:19:49.881Z,2.80
2023-02-04T10:22:22.607Z,2.00
2023-02-04T10:24:49.610Z,3.50
2023-02-04T10:27:16.870Z,2.80
2023-02-04T10:29:55.078Z,2.40
2023-02-04T10:32:27.558Z,2.90
2023-02-04T10:34:59.421Z,3.20
2023-02-04T10:37:26.882Z,3.00
2023-02-04T10:39:53.932Z,3.70
2023-02-04T10:42:26.926Z,3.90
2023-02-04T10:44:54.386Z,3.30
2023-02-04T10:47:31.427Z,3.80
2023-02-04T10:50:07.836Z,2.90
2023-02-04T10:52:40.378Z,2.70
2023-02-04T10:55:13.352Z,3.30
2023-02-04T10:57:43.757Z,3.20
2023-02-04T11:00:31.822Z,2.90
2023-02-04T11:03:04.460Z,2.70
2023-02-04T11:05:34.083Z,2.40
2023-02-04T11:08:02.628Z,2.00
2023-02-04T11:10:34.713Z,4.70
2023-02-04T11:13:06.808Z,4.00
2023-02-04T11:15:55.162Z,4.00
2023-02-04T11:18:22.268Z,5.10
2023-02-04T11:20:50.991Z,4.90
2023-02-04T11:23:27.025Z,6.30
2023-02-04T11:26:17.402Z,6.00
2023-02-04T11:28:58.164Z,5.50
2023-02-04T11:31:25.047Z,6.10
2023-02-04T11:34:14.182Z,5.30
2023-02-04T11:37:16.249Z,4.90
2023-02-04T11:39:50.952Z,6.10
2023-02-04T11:42:17.800Z,5.90
2023-02-04T11:44:58.459Z,5.60
2023-02-04T11:47:27.144Z,5.80
2023-02-04T11:49:57.984Z,4.60
2023-02-04T11:52:25.353Z,4.70
2023-02-04T11:55:00.282Z,4.40
2023-02-04T11:57:28.147Z,4.90
2023-02-04T11:59:55.720Z,4.80
2023-02-04T12:02:26.213Z,5.30
2023-02-04T12:05:20.113Z,5.10
2023-02-04T12:07:49.008Z,4.50
2023-02-04T12:10:26.900Z,5.70
2023-02-04T12:12:58.470Z,6.10
2023-02-04T12:15:41.488Z,6.10
2023-02-04T12:18:13.097Z,5.90
2023-02-04T12:20:40.095Z,5.50
2023-02-04T12:23:07.239Z,6.10
2023-02-04T12:25:34.833Z,6.80
2023-02-04T12:28:02.629Z,11.70
2023-02-04T12:30:30.353Z,5.70
2023-02-04T12:32:57.499Z,5.00
2023-02-04T12:35:24.560Z,5.00
2023-02-04T12:37:51.427Z,7.20
2023-02-04T12:40:20.921Z,8.30
2023-02-04T12:42:48.261Z,10.80
2023-02-04T12:45:17.492Z,9.40
2023-02-04T12:47:44.827Z,5.80
2023-02-04T12:50:14.446Z,6.50
2023-02-04T12:52:41.490Z,5.20
2023-02-04T12:55:09.345Z,7.30
2023-02-04T12:57:36.410Z,6.00
2023-02-04T13:00:04.739Z,5.00
2023-02-04T13:02:31.644Z,4.60
2023-02-04T13:04:58.661Z,3.60
2023-02-04T13:07:25.652Z,6.60
2023-02-04T13:09:52.803Z,5.10
2023-02-04T13:12:19.700Z,5.30
2023-02-04T13:14:46.906Z,4.20
2023-02-04T13:17:13.959Z,5.30
2023-02-04T13:19:40.915Z,3.30
2023-02-04T13:22:07.858Z,3.40
2023-02-04T13:24:34.913Z,4.40
2023-02-04T13:27:02.071Z,2.00
2023-02-04T13:29:31.276Z,2.20
2023-02-04T13:31:58.271Z,3.00
2023-02-04T13:34:25.378Z,3.30
2023-02-04T13:36:52.431Z,2.70
2023-02-04T13:39:19.520Z,4.40
2023-02-04T13:41:47.295Z,5.70
2023-02-04T13:44:14.307Z,5.80
2023-02-04T13:46:41.470Z,5.10
2023-02-04T13:49:08.417Z,3.90
2023-02-04T13:51:35.365Z,4.50
2023-02-04T13:54:02.420Z,4.10
2023-02-04T13:56:30.896Z,3.40
2023-02-04T13:58:57.880Z,3.20
2023-02-04T14:01:25.621Z,2.70
2023-02-04T14:03:52.678Z,3.00
2023-02-04T14:06:21.979Z,3.10
2023-02-04T14:08:49.032Z,5.00
2023-02-04T14:11:16.091Z,3.20
2023-02-04T14:13:43.136Z,3.80
2023-02-04T14:16:10.132Z,3.70
2023-02-04T14:18:37.046Z,3.90
2023-02-04T14:21:04.498Z,3.50
2023-02-04T14:23:31.460Z,2.70
2023-02-04T14:25:58.329Z,3.30
2023-02-04T14:28:25.368Z,5.90
2023-02-04T14:30:52.540Z,6.20
2023-02-04T14:33:20.892Z,4.80
2023-02-04T14:35:47.814Z,2.90
2023-02-04T14:38:16.324Z,4.00
2023-02-04T14:40:45.885Z,5.00
2023-02-04T14:43:13.294Z,5.00
2023-02-04T14:45:41.402Z,5.00
2023-02-04T14:48:09.445Z,4.30
2023-02-04T14:50:36.410Z,5.00
2023-02-04T14:53:03.784Z,4.10
2023-02-04T14:55:30.820Z,10.20
2023-02-04T14:57:57.696Z,7.70
2023-02-04T15:00:24.913Z,6.80
2023-02-04T15:02:52.687Z,4.80
2023-02-04T15:05:19.652Z,4.30
2023-02-04T15:07:46.587Z,4.50
2023-02-04T15:10:15.243Z,5.00
2023-02-04T15:12:42.546Z,5.90
2023-02-04T15:15:11.227Z,7.30
2023-02-04T15:17:38.592Z,9.10
2023-02-04T15:20:05.945Z,7.30
2023-02-04T15:22:33.006Z,8.20
2023-02-04T15:25:00.092Z,7.40
2023-02-04T15:27:27.315Z,9.00
2023-02-04T15:29:54.273Z,8.50
2023-02-04T15:32:21.420Z,9.80
2023-02-04T15:34:48.621Z,9.60
2023-02-04T15:37:15.850Z,11.10
2023-02-04T15:39:43.907Z,13.00
2023-02-04T15:42:11.187Z,10.20
2023-02-04T15:44:38.156Z,10.80
2023-02-04T15:47:06.437Z,11.10
2023-02-04T15:49:34.123Z,7.50
2023-02-04T15:52:02.705Z,5.20
2023-02-04T15:54:30.295Z,6.70
2023-02-04T15:56:57.924Z,7.40
2023-02-04T15:59:24.894Z,6.50
2023-02-04T16:01:51.863Z,6.30
2023-02-04T16:04:20.784Z,4.50
2023-02-04T16:06:58.070Z,5.10
2023-02-04T16:09:26.559Z,5.80
2023-02-04T16:11:53.366Z,5.10
2023-02-04T16:14:20.355Z,6.60
2023-02-04T16:16:47.367Z,6.70
2023-02-04T16:19:14.354Z,7.30
2023-02-04T16:21:41.299Z,6.90
2023-02-04T16:24:08.800Z,7.40
2023-02-04T16:26:35.713Z,7.90
2023-02-04T16:29:02.664Z,8.80
2023-02-04T16:31:30.007Z,9.30
2023-02-04T16:33:57.072Z,9.50
2023-02-04T16:36:24.429Z,9.50
2023-02-04T16:38:51.252Z,8.30
2023-02-04T16:41:18.228Z,8.40
2023-02-04T16:43:45.282Z,7.50
2023-02-04T16:46:16.285Z,8.80
2023-02-04T16:48:43.276Z,13.20
2023-02-04T16:51:11.669Z,8.10
2023-02-04T16:53:39.452Z,6.30
2023-02-04T16:56:07.304Z,6.40
2023-02-04T16:58:34.666Z,7.10
2023-02-04T17:01:01.639Z,6.10
2023-02-04T17:03:29.495Z,6.70
2023-02-04T17:05:56.740Z,5.40
2023-02-04T17:08:24.552Z,6.20
2023-02-04T17:11:10.696Z,6.00
2023-02-04T17:13:37.747Z,6.30
2023-02-04T17:16:05.476Z,6.90
2023-02-04T17:18:33.290Z,7.70
2023-02-04T17:21:00.961Z,7.20
2023-02-04T17:23:29.286Z,6.60
2023-02-04T17:25:56.235Z,6.50
2023-02-04T17:28:24.404Z,9.40
2023-02-04T17:30:51.355Z,11.50
2023-02-04T17:33:18.908Z,13.50
2023-02-04T17:35:46.046Z,16.50
2023-02-04T17:38:13.085Z,17.60
2023-02-04T17:40:40.155Z,18.10
2023-02-04T17:43:07.838Z,23.60
2023-02-04T17:45:35.784Z,17.80
2023-02-04T17:48:02.953Z,16.20
2023-02-04T17:50:30.001Z,14.00
2023-02-04T17:52:58.282Z,14.70
2023-02-04T17:55:31.028Z,16.80
2023-02-04T17:58:16.962Z,19.90
2023-02-04T18:00:46.637Z,27.70
2023-02-04T18:03:15.495Z,19.70
2023-02-04T18:05:46.968Z,17.90
2023-02-04T18:08:22.892Z,14.00
2023-02-04T18:10:51.952Z,25.00
2023-02-04T18:13:31.705Z,96.50
2023-02-04T18:16:01.136Z,24.40
2023-02-04T18:18:33.083Z,15.90
2023-02-04T18:21:47.540Z,20.90
2023-02-04T18:24:22.836Z,15.80
2023-02-04T18:26:56.457Z,16.30
2023-02-04T18:29:38.904Z,15.50
2023-02-04T18:32:10.135Z,15.20
2023-02-04T18:34:44.700Z,15.10
2023-02-04T18:37:35.848Z,14.20
2023-02-04T18:40:08.877Z,15.20
2023-02-04T18:42:43.878Z,15.30
2023-02-04T18:45:20.409Z,15.40
2023-02-04T18:47:47.743Z,14.30
2023-02-04T18:50:32.011Z,13.80
2023-02-04T18:53:15.223Z,13.00
2023-02-04T18:55:47.913Z,12.50
2023-02-04T18:58:31.454Z,10.60
2023-02-04T19:01:00.877Z,11.60
2023-02-04T19:03:30.880Z,14.40
2023-02-04T19:06:04.013Z,11.50
2023-02-04T19:08:44.805Z,11.60
2023-02-04T19:11:35.209Z,11.70
2023-02-04T19:14:13.079Z,12.70
2023-02-04T19:16:41.510Z,12.50
2023-02-04T19:19:23.925Z,11.40
2023-02-04T19:21:51.052Z,13.50
2023-02-04T19:24:32.369Z,14.20
2023-02-04T19:27:01.866Z,14.20
2023-02-04T19:29:39.028Z,15.70
2023-02-04T19:32:31.675Z,13.40
2023-02-04T19:35:08.289Z,19.00
2023-02-04T19:37:41.396Z,13.70
2023-02-04T19:40:33.960Z,13.30
2023-02-04T19:43:22.206Z,14.30
2023-02-04T19:45:51.358Z,14.40
2023-02-04T19:48:36.503Z,15.60
2023-02-04T19:51:19.581Z,13.80
2023-02-04T19:53:51.784Z,14.70
2023-02-04T19:56:45.124Z,17.00
2023-02-04T19:59:11.932Z,17.00
2023-02-04T20:01:39.035Z,20.20
2023-02-04T20:04:09.950Z,41.60
2023-02-04T20:06:36.910Z,35.40
2023-02-04T20:09:23.759Z,27.80
2023-02-04T20:12:10.269Z,23.50
2023-02-04T20:14:44.475Z,18.50
2023-02-04T20:17:15.063Z,15.30
2023-02-04T20:19:42.721Z,23.80
2023-02-04T20:22:19.049Z,15.70
2023-02-04T20:24:47.919Z,18.40
2023-02-04T20:27:25.566Z,17.20
2023-02-04T20:30:01.343Z,15.70
2023-02-04T20:32:34.825Z,13.50
2023-02-04T20:35:08.012Z,12.20
2023-02-04T20:37:36.343Z,11.70
2023-02-04T20:40:31.891Z,11.20
2023-02-04T20:43:04.350Z,11.70
2023-02-04T20:45:37.781Z,9.90
2023-02-04T20:48:17.547Z,9.60
2023-02-04T20:50:44.789Z,10.00
2023-02-04T20:53:26.567Z,11.30
2023-02-04T20:55:55.154Z,11.70
2023-02-04T20:58:24.661Z,14.00
2023-02-04T21:00:54.542Z,13.50
2023-02-04T21:03:24.407Z,11.70
2023-02-04T21:05:57.537Z,12.80
2023-02-04T21:08:37.513Z,12.90
2023-02-04T21:11:05.304Z,13.10
2023-02-04T21:13:33.067Z,11.80
2023-02-04T21:16:00.091Z,11.20
2023-02-04T21:18:27.486Z,10.90
2023-02-04T21:20:54.750Z,11.50
2023-02-04T21:23:21.957Z,11.20
2023-02-04T21:25:49.250Z,11.20
2023-02-04T21:28:16.667Z,12.20
2023-02-04T21:30:44.057Z,12.20
2023-02-04T21:33:11.952Z,12.80
2023-02-04T21:35:39.918Z,12.70
2023-02-04T21:38:08.222Z,12.90
2023-02-04T21:40:37.463Z,12.70
2023-02-04T21:43:08.445Z,13.50
2023-02-04T21:45:37.936Z,11.30
2023-02-04T21:48:05.746Z,11.10
2023-02-04T21:50:33.312Z,10.00
2023-02-04T21:53:00.545Z,8.30
2023-02-04T21:55:29.223Z,9.60
2023-02-04T21:57:56.502Z,9.30
2023-02-04T22:00:24.170Z,9.40
2023-02-04T22:02:52.952Z,10.30
2023-02-04T22:05:21.275Z,10.10
2023-02-04T22:07:49.017Z,8.60
2023-02-04T22:10:22.225Z,8.50
2023-02-04T22:12:49.557Z,8.20
2023-02-04T22:15:17.334Z,8.80
2023-02-04T22:17:45.329Z,7.90
2023-02-04T22:20:15.804Z,8.00
2023-02-04T22:22:47.691Z,6.70
2023-02-04T22:25:17.026Z,7.50
2023-02-04T22:27:44.059Z,7.10
2023-02-04T22:30:13.440Z,7.30
2023-02-04T22:32:41.134Z,9.20
2023-02-04T22:35:10.571Z,9.50
2023-02-04T22:37:42.194Z,14.90
2023-02-04T22:40:11.826Z,12.20
2023-02-04T22:45:06.838Z,11.30
2023-02-04T22:47:34.005Z,13.10
2023-02-04T22:50:01.041Z,12.80
2023-02-04T22:52:28.010Z,12.30
2023-02-04T22:54:55.030Z,11.80
2023-02-04T22:57:22.223Z,14.20
2023-02-04T22:59:49.157Z,16.70
2023-02-04T23:02:16.156Z,15.10
2023-02-04T23:04:44.121Z,13.80
2023-02-04T23:07:13.514Z,13.70
2023-02-04T23:09:41.041Z,11.10
2023-02-04T23:12:14.442Z,11.50
2023-02-04T23:14:47.056Z,10.20
2023-02-04T23:17:15.732Z,11.60
2023-02-04T23:19:43.069Z,8.20
2023-02-04T23:22:12.171Z,6.80
2023-02-04T23:24:40.243Z,8.00
2023-02-04T23:27:09.639Z,10.30
2023-02-04T23:29:36.709Z,7.20
2023-02-04T23:32:04.367Z,6.50
2023-02-04T23:34:31.946Z,7.40
2023-02-04T23:36:58.977Z,9.10
2023-02-04T23:39:26.241Z,11.10
2023-02-04T23:41:53.308Z,9.70
2023-02-04T23:44:20.377Z,11.50
2023-02-04T23:46:47.499Z,9.30
2023-02-04T23:49:15.749Z,9.60
2023-02-04T23:51:43.350Z,9.90
2023-02-04T23:54:10.605Z,10.60
2023-02-04T23:56:38.192Z,12.70
2023-02-04T23:59:06.034Z,15.20
